createdAt,value
2022-08-01T00:02:56.654Z,24.77
2022-08-01T00:07:55.413Z,24.61
2022-08-01T00:12:54.220Z,24.57
2022-08-01T00:17:53.008Z,24.66
2022-08-01T00:22:53.095Z,24.58
2022-08-01T00:27:51.950Z,24.56
2022-08-01T00:32:52.338Z,24.56
2022-08-01T00:37:52.682Z,24.42
2022-08-01T00:42:51.446Z,24.36
2022-08-01T00:47:55.375Z,24.31
2022-08-01T00:52:56.836Z,24.27
2022-08-01T00:58:04.655Z,24.23
2022-08-01T01:03:05.064Z,24.30
2022-08-01T01:08:16.026Z,24.33
2022-08-01T01:13:22.769Z,24.35
2022-08-01T01:18:26.534Z,24.27
2022-08-01T01:23:40.972Z,24.19
2022-08-01T01:29:02.831Z,24.26
2022-08-01T01:34:05.373Z,24.08
2022-08-01T01:39:04.377Z,23.93
2022-08-01T01:44:05.979Z,24.00
2022-08-01T01:49:06.109Z,23.97
2022-08-01T01:54:07.935Z,23.92
2022-08-01T01:59:08.164Z,23.94
2022-08-01T02:04:07.986Z,23.91
2022-08-01T02:09:09.348Z,23.84
2022-08-01T02:14:11.639Z,23.88
2022-08-01T02:19:12.080Z,23.86
2022-08-01T02:24:16.040Z,23.85
2022-08-01T02:29:30.172Z,23.70
2022-08-01T02:34:33.446Z,23.73
2022-08-01T02:39:34.161Z,23.77
2022-08-01T02:44:39.596Z,23.73
2022-08-01T02:49:44.241Z,23.79
2022-08-01T02:54:47.105Z,23.63
2022-08-01T02:59:49.062Z,23.50
2022-08-01T03:04:53.946Z,23.56
2022-08-01T03:09:56.289Z,23.25
2022-08-01T03:14:58.960Z,23.41
2022-08-01T03:20:00.649Z,23.36
2022-08-01T03:25:01.118Z,23.28
2022-08-01T03:30:06.041Z,23.22
2022-08-01T03:35:05.490Z,23.22
2022-08-01T03:40:09.875Z,23.29
2022-08-01T03:45:13.702Z,23.38
2022-08-01T03:50:14.259Z,23.30
2022-08-01T03:55:15.097Z,23.46
2022-08-01T04:00:19.568Z,23.33
2022-08-01T04:05:19.112Z,23.42
2022-08-01T04:10:18.587Z,23.32
2022-08-01T04:15:18.927Z,23.36
2022-08-01T04:20:17.906Z,23.21
2022-08-01T04:25:23.909Z,23.12
2022-08-01T04:30:29.294Z,23.18
2022-08-01T04:36:01.706Z,23.24
2022-08-01T04:40:52.325Z,23.21
2022-08-01T04:45:53.758Z,23.02
2022-08-01T04:50:52.672Z,23.11
2022-08-01T04:55:51.715Z,23.22
2022-08-01T05:00:50.501Z,23.45
2022-08-01T05:05:50.674Z,23.34
2022-08-01T05:10:49.402Z,23.26
2022-08-01T05:15:48.200Z,23.25
2022-08-01T05:20:48.448Z,23.48
2022-08-01T05:25:58.013Z,23.51
2022-08-01T05:30:57.881Z,23.22
2022-08-01T05:35:56.665Z,23.32
2022-08-01T05:40:56.882Z,23.13
2022-08-01T05:45:55.841Z,23.10
2022-08-01T05:50:58.699Z,23.05
2022-08-01T05:55:59.080Z,23.12
2022-08-01T06:00:57.874Z,23.32
2022-08-01T06:05:56.584Z,23.45
2022-08-01T06:10:55.692Z,23.47
2022-08-01T06:15:55.839Z,23.55
2022-08-01T06:20:54.550Z,23.64
2022-08-01T06:25:55.228Z,23.80
2022-08-01T06:30:55.549Z,23.93
2022-08-01T06:35:54.375Z,23.98
2022-08-01T06:40:53.353Z,24.01
2022-08-01T06:45:52.197Z,23.94
2022-08-01T06:51:09.140Z,24.26
2022-08-01T06:56:09.750Z,24.27
2022-08-01T07:01:09.333Z,24.35
2022-08-01T07:06:09.574Z,24.41
2022-08-01T07:11:08.507Z,24.43
2022-08-01T07:16:07.355Z,24.57
2022-08-01T07:21:06.029Z,24.53
2022-08-01T07:26:17.172Z,24.90
2022-08-01T07:31:16.201Z,24.75
2022-08-01T07:36:14.952Z,25.11
2022-08-01T07:41:13.789Z,25.27
2022-08-01T07:46:13.989Z,25.67
2022-08-01T07:51:13.224Z,25.86
2022-08-01T07:56:11.965Z,26.05
2022-08-01T08:01:10.811Z,26.03
2022-08-01T08:06:10.949Z,26.17
2022-08-01T08:11:09.697Z,26.33
2022-08-01T08:16:08.950Z,26.63
2022-08-01T08:21:07.738Z,26.99
2022-08-01T08:26:08.231Z,27.10
2022-08-01T08:31:07.126Z,27.54
2022-08-01T08:36:06.705Z,27.98
2022-08-01T08:41:08.323Z,28.05
2022-08-01T08:46:09.725Z,28.80
2022-08-01T08:51:11.504Z,29.69
2022-08-01T08:56:14.387Z,29.87
2022-08-01T09:01:13.885Z,30.40
2022-08-01T09:06:13.254Z,30.68
2022-08-01T09:11:23.159Z,31.77
2022-08-01T09:16:23.879Z,32.16
2022-08-01T09:21:25.121Z,33.53
2022-08-01T09:26:34.031Z,33.88
2022-08-01T09:31:42.454Z,34.72
2022-08-01T09:36:54.221Z,35.89
2022-08-01T09:41:56.482Z,36.24
2022-08-01T09:46:59.457Z,37.28
2022-08-01T09:52:15.453Z,38.74
2022-08-01T09:57:18.220Z,39.31
2022-08-01T10:29:24.297Z,35.85
2022-08-01T10:34:27.261Z,35.33
2022-08-01T10:39:31.055Z,34.48
2022-08-01T10:44:34.288Z,33.44
2022-08-01T10:49:38.743Z,32.98
2022-08-01T10:54:52.518Z,32.24
2022-08-01T11:00:01.003Z,31.78
2022-08-01T11:05:04.723Z,31.59
2022-08-01T11:10:14.535Z,31.58
2022-08-01T11:15:31.095Z,31.67
2022-08-01T11:20:32.590Z,31.81
2022-08-01T11:26:10.644Z,31.86
2022-08-01T11:31:37.044Z,32.17
2022-08-01T11:36:57.472Z,32.21
2022-08-01T11:41:55.882Z,32.61
2022-08-01T11:47:08.588Z,32.79
2022-08-01T11:52:10.681Z,33.05
2022-08-01T11:57:12.825Z,33.51
2022-08-01T12:02:30.538Z,34.44
2022-08-01T12:07:31.925Z,34.59
2022-08-01T12:12:35.498Z,36.21
2022-08-01T12:17:37.561Z,36.88
2022-08-01T12:22:37.182Z,37.53
2022-08-01T12:27:35.897Z,39.15
2022-08-01T12:32:39.858Z,38.72
2022-08-01T12:37:45.198Z,37.90
2022-08-01T12:42:47.837Z,37.94
2022-08-01T12:47:50.061Z,37.73
2022-08-01T12:52:50.315Z,38.61
2022-08-01T12:57:52.795Z,39.23
2022-08-01T13:03:02.736Z,39.79
2022-08-01T13:08:06.931Z,40.58
2022-08-01T13:13:06.317Z,40.36
2022-08-01T13:18:26.610Z,39.93
2022-08-01T13:24:03.085Z,39.68
2022-08-01T13:28:44.500Z,40.00
2022-08-01T13:33:59.934Z,40.89
2022-08-01T13:39:17.027Z,40.61
2022-08-01T13:44:16.296Z,40.37
2022-08-01T13:49:16.821Z,40.49
2022-08-01T13:54:16.173Z,41.37
2022-08-01T13:59:15.457Z,41.87
2022-08-01T14:04:14.617Z,42.16
2022-08-01T14:09:24.407Z,42.27
2022-08-01T14:14:23.776Z,41.51
2022-08-01T14:19:38.475Z,41.15
2022-08-01T14:24:40.072Z,40.54
2022-08-01T14:30:01.146Z,40.84
2022-08-01T14:34:59.671Z,40.97
2022-08-01T14:40:01.577Z,41.28
2022-08-01T14:45:01.446Z,42.40
2022-08-01T14:50:00.305Z,42.90
2022-08-01T14:55:00.620Z,42.71
2022-08-01T14:59:59.727Z,43.22
2022-08-01T15:04:58.686Z,42.82
2022-08-01T15:09:57.547Z,42.42
2022-08-01T15:14:58.905Z,41.81
2022-08-01T15:19:59.037Z,41.12
2022-08-01T15:24:59.911Z,40.41
2022-08-01T15:30:00.071Z,39.80
2022-08-01T15:34:58.893Z,39.18
2022-08-01T15:39:57.662Z,38.75
2022-08-01T15:44:56.525Z,38.24
2022-08-01T15:50:00.511Z,37.93
2022-08-01T15:55:01.868Z,37.69
2022-08-01T16:00:00.626Z,37.46
2022-08-01T16:05:00.857Z,37.45
2022-08-01T16:09:59.633Z,37.56
2022-08-01T16:14:58.560Z,37.49
2022-08-01T16:19:57.437Z,37.50
2022-08-01T16:25:00.727Z,37.51
2022-08-01T16:29:59.831Z,37.33
2022-08-01T16:34:58.612Z,36.63
2022-08-01T16:39:59.155Z,36.19
2022-08-01T16:45:02.086Z,35.83
2022-08-01T16:50:09.706Z,35.36
2022-08-01T16:55:11.407Z,35.11
2022-08-01T17:00:20.836Z,34.78
2022-08-01T17:05:20.416Z,34.37
2022-08-01T17:10:20.524Z,34.09
2022-08-01T17:15:19.071Z,33.85
2022-08-01T17:20:17.870Z,33.62
2022-08-01T17:25:17.992Z,33.31
2022-08-01T17:30:18.124Z,32.98
2022-08-01T17:35:17.831Z,32.69
2022-08-01T17:40:38.955Z,32.49
2022-08-01T17:45:50.307Z,32.41
2022-08-01T17:50:51.988Z,32.24
2022-08-01T17:55:53.384Z,32.00
2022-08-01T18:00:57.255Z,31.73
2022-08-01T18:05:56.119Z,31.55
2022-08-01T18:10:55.642Z,31.41
2022-08-01T18:15:54.408Z,31.26
2022-08-01T18:20:56.469Z,31.22
2022-08-01T18:25:56.644Z,31.14
2022-08-01T18:30:57.299Z,31.09
2022-08-01T18:36:03.753Z,31.10
2022-08-01T18:41:03.508Z,31.08
2022-08-01T18:46:04.248Z,31.10
2022-08-01T18:51:04.519Z,31.09
2022-08-01T18:56:11.910Z,30.92
2022-08-01T19:01:10.918Z,30.75
2022-08-01T19:06:11.310Z,30.65
2022-08-01T19:11:10.056Z,30.51
2022-08-01T19:16:08.834Z,30.34
2022-08-01T19:21:07.677Z,30.07
2022-08-01T19:26:12.733Z,29.85
2022-08-01T19:31:13.225Z,29.81
2022-08-01T19:36:18.620Z,29.76
2022-08-01T19:41:19.894Z,29.65
2022-08-01T19:46:18.771Z,29.52
2022-08-01T19:51:18.388Z,29.46
2022-08-01T19:56:20.869Z,29.37
2022-08-01T20:01:20.656Z,29.22
2022-08-01T20:06:20.257Z,29.15
2022-08-01T20:11:24.706Z,29.02
2022-08-01T20:16:24.007Z,29.07
2022-08-01T20:21:24.942Z,29.12
2022-08-01T20:26:28.236Z,29.05
2022-08-01T20:31:33.953Z,28.97
2022-08-01T20:36:42.787Z,28.82
2022-08-01T20:41:59.745Z,28.72
2022-08-01T20:47:01.238Z,28.65
2022-08-01T20:52:00.155Z,28.54
2022-08-01T20:57:17.115Z,28.51
2022-08-01T21:02:31.942Z,28.43
2022-08-01T21:07:35.419Z,28.30
2022-08-01T21:12:45.015Z,28.25
2022-08-01T21:17:47.630Z,28.22
2022-08-01T21:22:57.318Z,28.11
2022-08-01T21:27:57.639Z,28.08
2022-08-01T21:32:57.025Z,27.95
2022-08-01T21:37:59.762Z,27.83
2022-08-01T21:43:02.057Z,27.79
2022-08-01T21:48:01.162Z,27.74
2022-08-01T21:53:11.474Z,27.77
2022-08-01T21:58:24.175Z,27.70
2022-08-01T22:03:26.437Z,27.66
2022-08-01T22:08:34.521Z,27.64
2022-08-01T22:13:36.467Z,27.57
2022-08-01T22:18:37.623Z,27.45
2022-08-01T22:23:38.216Z,27.29
2022-08-01T22:28:39.610Z,27.29
2022-08-01T22:33:39.191Z,27.22
2022-08-01T22:38:37.879Z,27.28
2022-08-01T22:43:43.139Z,27.07
2022-08-01T22:48:47.641Z,26.92
2022-08-01T22:53:54.614Z,26.76
2022-08-01T22:58:57.659Z,26.63
2022-08-01T23:04:00.413Z,26.61
2022-08-01T23:09:01.546Z,26.67
2022-08-01T23:14:03.745Z,26.69
2022-08-01T23:19:03.702Z,26.48
2022-08-01T23:24:03.304Z,26.25
2022-08-01T23:29:04.244Z,26.14
2022-08-01T23:34:03.073Z,26.00
2022-08-01T23:39:02.036Z,25.88
2022-08-01T23:44:00.799Z,25.77
2022-08-01T23:49:02.280Z,25.72
2022-08-01T23:54:01.084Z,25.70
2022-08-01T23:58:59.865Z,25.67
